createdAt,value
2022-11-29T00:00:52.590Z,101234.66
2022-11-29T00:03:25.446Z,101228.44
2022-11-29T00:05:57.853Z,101234.38
2022-11-29T00:08:29.967Z,101225.41
2022-11-29T00:11:11.771Z,101227.59
2022-11-29T00:13:43.735Z,101234.78
2022-11-29T00:16:15.847Z,101224.00
2022-11-29T00:18:49.508Z,101243.56
2022-11-29T00:21:21.416Z,101247.06
2022-11-29T00:23:53.389Z,101246.25
2022-11-29T00:26:25.638Z,101244.53
2022-11-29T00:28:57.578Z,101233.53
2022-11-29T00:31:32.924Z,101245.97
2022-11-29T00:34:08.817Z,101253.84
2022-11-29T00:36:40.963Z,101244.13
2022-11-29T00:39:13.581Z,101248.47
2022-11-29T00:41:45.831Z,101251.22
2022-11-29T00:44:20.390Z,101249.41
2022-11-29T00:46:52.646Z,101245.84
2022-11-29T00:49:24.579Z,101252.88
2022-11-29T00:51:56.677Z,101244.03
2022-11-29T00:54:28.566Z,101242.22
2022-11-29T00:57:00.582Z,101245.75
2022-11-29T00:59:32.459Z,101245.75
2022-11-29T01:02:04.692Z,101243.09
2022-11-29T01:04:36.740Z,101248.34
2022-11-29T01:07:08.719Z,101239.34
2022-11-29T01:09:40.852Z,101242.78
2022-11-29T01:12:12.919Z,101247.91
2022-11-29T01:14:45.233Z,101240.88
2022-11-29T01:17:17.446Z,101243.56
2022-11-29T01:19:50.784Z,101245.28
2022-11-29T01:22:23.221Z,101249.84
2022-11-29T01:24:55.145Z,101230.94
2022-11-29T01:27:27.267Z,101255.09
2022-11-29T01:29:59.316Z,101250.53
2022-11-29T01:32:31.505Z,101258.63
2022-11-29T01:35:05.247Z,101247.00
2022-11-29T01:37:37.638Z,101260.19
2022-11-29T01:40:10.171Z,101260.19
2022-11-29T01:42:42.231Z,101265.44
2022-11-29T01:45:24.515Z,101263.63
2022-11-29T01:47:58.008Z,101259.16
2022-11-29T01:50:32.528Z,101268.84
2022-11-29T01:53:05.899Z,101268.75
2022-11-29T01:55:45.084Z,101278.56
2022-11-29T01:58:18.136Z,101268.75
2022-11-29T02:00:50.190Z,101273.88
2022-11-29T02:03:22.300Z,101291.53
2022-11-29T02:05:55.243Z,101282.56
2022-11-29T02:08:39.627Z,101282.97
2022-11-29T02:11:17.464Z,101305.19
2022-11-29T02:14:29.410Z,101302.31
2022-11-29T02:17:59.586Z,101296.91
2022-11-29T02:21:15.279Z,101304.03
2022-11-29T02:24:18.501Z,101290.69
2022-11-29T02:27:21.474Z,101306.69
2022-11-29T02:30:50.387Z,101312.00
2022-11-29T02:33:30.774Z,101304.34
2022-11-29T02:36:16.534Z,101317.69
2022-11-29T02:39:08.273Z,101312.31
2022-11-29T02:42:21.113Z,101316.66
2022-11-29T02:45:33.290Z,101314.25
2022-11-29T02:48:41.926Z,101311.91
2022-11-29T02:51:26.095Z,101301.53
2022-11-29T02:54:23.958Z,101297.09
2022-11-29T02:57:07.110Z,101305.25
2022-11-29T03:00:09.000Z,101313.34
2022-11-29T03:03:02.928Z,101318.44
2022-11-29T03:05:41.943Z,101319.94
2022-11-29T03:08:44.129Z,101324.75
2022-11-29T03:11:50.868Z,101315.31
2022-11-29T03:15:05.874Z,101328.56
2022-11-29T03:18:14.703Z,101327.66
2022-11-29T03:21:17.006Z,101331.84
2022-11-29T03:23:55.175Z,101333.00
2022-11-29T03:26:42.260Z,101337.09
2022-11-29T03:29:36.411Z,101340.25
2022-11-29T03:32:27.821Z,101351.56
2022-11-29T03:35:24.441Z,101343.91
2022-11-29T03:38:16.900Z,101354.72
2022-11-29T03:41:13.232Z,101349.47
2022-11-29T03:44:08.832Z,101356.34
2022-11-29T03:46:50.954Z,101360.91
2022-11-29T03:49:35.622Z,101368.25
2022-11-29T03:52:50.710Z,101367.44
2022-11-29T03:55:31.621Z,101370.25
2022-11-29T03:58:40.720Z,101369.97
2022-11-29T04:02:00.916Z,101372.06
2022-11-29T04:04:57.249Z,101375.44
2022-11-29T04:07:54.071Z,101375.03
2022-11-29T04:10:53.093Z,101384.47
2022-11-29T04:13:53.060Z,101381.03
2022-11-29T04:16:52.743Z,101384.75
2022-11-29T04:20:06.947Z,101392.56
2022-11-29T04:23:26.216Z,101388.75
2022-11-29T04:26:33.579Z,101386.69
2022-11-29T04:29:59.279Z,101386.53
2022-11-29T04:33:26.436Z,101393.09
2022-11-29T04:36:56.844Z,101391.28
2022-11-29T04:40:04.545Z,101398.66
2022-11-29T04:42:45.152Z,101404.06
2022-11-29T04:45:28.372Z,101411.16
2022-11-29T04:48:18.070Z,101406.91
2022-11-29T04:51:30.729Z,101410.50
2022-11-29T04:54:32.929Z,101410.81
2022-11-29T04:57:37.385Z,101411.56
2022-11-29T05:00:19.554Z,101407.31
2022-11-29T05:03:20.901Z,101413.38
2022-11-29T05:06:30.568Z,101313.88
2022-11-29T05:09:41.099Z,101423.13
2022-11-29T05:13:06.117Z,101423.53
2022-11-29T05:16:32.968Z,101436.13
2022-11-29T05:19:29.707Z,101431.22
2022-11-29T05:22:33.619Z,101422.34
2022-11-29T05:25:33.316Z,101440.03
2022-11-29T05:29:01.076Z,101452.72
2022-11-29T05:32:28.861Z,101456.34
2022-11-29T05:35:22.329Z,101462.84
2022-11-29T05:38:08.581Z,101459.53
2022-11-29T05:40:53.851Z,101459.53
2022-11-29T05:43:48.877Z,101472.69
2022-11-29T05:46:30.260Z,101451.25
2022-11-29T05:49:31.303Z,101476.97
2022-11-29T05:52:28.867Z,101470.72
2022-11-29T05:55:41.225Z,101478.53
2022-11-29T05:58:48.770Z,101482.25
2022-11-29T06:01:24.347Z,101478.97
2022-11-29T06:03:59.405Z,101486.19
2022-11-29T06:06:53.816Z,101493.09
2022-11-29T06:10:02.162Z,101493.91
2022-11-29T06:12:38.218Z,101498.47
2022-11-29T06:15:48.625Z,101506.25
2022-11-29T06:18:46.308Z,101506.09
2022-11-29T06:21:38.514Z,101515.13
2022-11-29T06:25:01.450Z,101526.31
2022-11-29T06:28:15.680Z,101533.28
2022-11-29T06:31:19.707Z,101537.53
2022-11-29T06:34:30.951Z,101532.91
2022-11-29T06:37:27.458Z,101526.66
2022-11-29T06:39:59.768Z,101534.75
2022-11-29T06:42:31.837Z,101548.47
2022-11-29T06:45:05.556Z,101553.69
2022-11-29T06:47:43.800Z,101554.41
2022-11-29T06:51:27.893Z,101558.28
2022-11-29T06:54:05.496Z,101558.44
2022-11-29T06:57:26.293Z,101560.09
2022-11-29T07:00:20.639Z,101564.66
2022-11-29T07:03:33.636Z,101564.84
2022-11-29T07:06:22.730Z,101572.69
2022-11-29T07:09:20.248Z,101580.47
2022-11-29T07:11:52.673Z,101571.03
2022-11-29T07:14:25.216Z,101573.00
2022-11-29T07:17:08.701Z,101576.69
2022-11-29T07:20:22.275Z,101579.72
2022-11-29T07:23:19.376Z,101588.91
2022-11-29T07:26:03.669Z,101590.22
2022-11-29T07:29:07.418Z,101584.84
2022-11-29T07:32:25.220Z,101595.69
2022-11-29T07:35:08.906Z,101609.84
2022-11-29T07:37:51.175Z,101605.44
2022-11-29T07:40:38.878Z,101607.66
2022-11-29T07:43:27.333Z,101608.56
2022-11-29T07:46:00.828Z,101618.03
2022-11-29T07:48:32.726Z,101616.16
2022-11-29T07:51:04.838Z,101617.06
2022-11-29T07:53:43.317Z,101630.19
2022-11-29T07:56:16.399Z,101626.81
2022-11-29T07:58:48.538Z,101625.91
2022-11-29T08:01:20.603Z,101608.91
2022-11-29T08:03:52.628Z,101619.75
2022-11-29T08:06:25.990Z,101610.50
2022-11-29T08:08:59.777Z,101618.53
2022-11-29T08:11:31.710Z,101620.34
2022-11-29T08:14:05.487Z,101625.59
2022-11-29T08:16:37.736Z,101619.28
2022-11-29T08:19:09.751Z,101631.41
2022-11-29T08:21:46.890Z,101625.66
2022-11-29T08:24:18.855Z,101638.56
2022-11-29T08:26:50.750Z,101644.41
2022-11-29T08:29:22.708Z,101637.28
2022-11-29T08:31:55.215Z,101644.13
2022-11-29T08:34:27.266Z,101614.34
2022-11-29T08:36:59.158Z,101646.84
2022-11-29T08:39:31.022Z,101646.84
2022-11-29T08:42:03.101Z,101648.63
2022-11-29T08:44:35.025Z,101652.09
2022-11-29T08:47:25.370Z,101646.59
2022-11-29T08:50:03.201Z,101659.09
2022-11-29T08:52:57.908Z,101658.94
2022-11-29T08:55:40.572Z,101655.34
2022-11-29T08:58:15.330Z,101658.22
2022-11-29T09:00:47.418Z,101664.19
2022-11-29T09:03:38.398Z,101662.56
2022-11-29T09:06:14.428Z,101660.66
2022-11-29T09:08:46.393Z,101665.09
2022-11-29T09:11:22.259Z,101662.22
2022-11-29T09:14:01.524Z,101672.88
2022-11-29T09:16:36.774Z,101674.66
2022-11-29T09:19:09.027Z,101656.59
2022-11-29T09:21:40.952Z,101671.41
2022-11-29T09:24:12.855Z,101676.44
2022-11-29T09:26:48.191Z,101682.16
2022-11-29T09:29:20.257Z,101689.97
2022-11-29T09:31:52.208Z,101698.06
2022-11-29T09:34:24.242Z,101696.44
2022-11-29T09:36:56.595Z,101666.84
2022-11-29T09:39:28.525Z,101700.03
2022-11-29T09:42:39.750Z,101707.47
2022-11-29T09:45:24.390Z,101701.31
2022-11-29T09:48:28.891Z,101713.44
2022-11-29T09:51:28.056Z,101715.25
2022-11-29T09:54:27.768Z,101709.28
2022-11-29T09:57:00.076Z,101714.69
2022-11-29T09:59:43.425Z,101717.81
2022-11-29T10:02:21.287Z,101715.53
2022-11-29T10:05:08.644Z,101722.50
2022-11-29T10:07:51.359Z,101706.69
2022-11-29T10:10:40.532Z,101728.19
2022-11-29T10:13:29.635Z,101726.84
2022-11-29T10:16:23.559Z,101727.97
2022-11-29T10:19:28.371Z,101730.69
2022-11-29T10:22:10.849Z,101730.13
2022-11-29T10:24:48.894Z,101720.97
2022-11-29T10:27:23.916Z,101716.53
2022-11-29T10:29:59.264Z,101711.63
2022-11-29T10:32:33.214Z,101717.03
2022-11-29T10:35:18.717Z,101715.72
2022-11-29T10:38:29.263Z,101718.00
2022-11-29T10:41:07.993Z,101722.09
2022-11-29T10:43:39.929Z,101719.13
2022-11-29T10:46:26.820Z,101716.78
2022-11-29T10:49:02.939Z,101712.44
2022-11-29T10:51:35.123Z,101725.22
2022-11-29T10:54:43.732Z,101729.41
2022-11-29T10:57:22.033Z,101723.31
2022-11-29T11:00:09.763Z,101723.09
2022-11-29T11:02:42.132Z,101724.22
2022-11-29T11:05:18.949Z,101722.03
2022-11-29T11:07:58.807Z,101722.78
2022-11-29T11:10:31.192Z,101727.38
2022-11-29T11:13:20.850Z,101723.00
2022-11-29T11:16:15.705Z,101707.03
2022-11-29T11:18:48.606Z,101718.13
2022-11-29T11:21:25.399Z,101722.63
2022-11-29T11:24:03.078Z,101726.03
2022-11-29T11:26:44.980Z,101720.00
2022-11-29T11:29:25.897Z,101726.88
2022-11-29T11:32:00.656Z,101729.31
2022-11-29T11:34:37.293Z,101730.06
2022-11-29T11:37:15.482Z,101728.84
2022-11-29T11:39:52.091Z,101733.91
2022-11-29T11:42:38.488Z,101744.25
2022-11-29T11:45:13.179Z,101741.94
2022-11-29T11:48:11.280Z,101736.78
2022-11-29T11:50:51.522Z,101745.16
2022-11-29T11:53:27.594Z,101752.22
2022-11-29T11:56:12.795Z,101754.72
2022-11-29T11:58:49.734Z,101759.56
2022-11-29T12:01:38.868Z,101757.50
2022-11-29T12:04:37.174Z,101761.59
2022-11-29T12:08:09.787Z,101760.72
2022-11-29T12:10:42.444Z,101767.19
2022-11-29T12:13:25.812Z,101772.59
2022-11-29T12:16:07.446Z,101774.16
2022-11-29T12:18:51.770Z,101775.88
2022-11-29T12:21:32.243Z,101776.94
2022-11-29T12:24:25.120Z,101770.63
2022-11-29T12:27:03.052Z,101768.00
2022-11-29T12:29:35.597Z,101778.00
2022-11-29T12:33:00.245Z,101784.53
2022-11-29T12:35:45.335Z,101789.94
2022-11-29T12:38:44.049Z,101801.44
2022-11-29T12:42:01.470Z,101782.75
2022-11-29T12:45:03.362Z,101802.94
2022-11-29T12:48:13.635Z,101796.38
2022-11-29T12:51:21.943Z,101805.50
2022-11-29T12:54:43.300Z,101810.31
2022-11-29T12:57:29.358Z,101811.47
2022-11-29T13:00:19.852Z,101809.03
2022-11-29T13:03:48.610Z,101798.19
2022-11-29T13:06:36.674Z,101803.19
2022-11-29T13:09:20.404Z,101804.47
2022-11-29T13:12:15.506Z,101809.88
2022-11-29T13:15:03.137Z,101804.03
2022-11-29T13:18:00.464Z,101816.25
2022-11-29T13:20:53.874Z,101815.44
2022-11-29T13:24:09.116Z,101807.41
2022-11-29T13:26:43.925Z,101806.91
2022-11-29T13:29:19.004Z,101813.47
2022-11-29T13:31:52.010Z,101806.16
2022-11-29T13:34:45.607Z,101813.94
2022-11-29T13:37:39.024Z,101819.88
2022-11-29T13:40:38.146Z,101823.56
2022-11-29T13:43:16.235Z,101821.31
2022-11-29T13:46:12.705Z,101826.75
2022-11-29T13:48:53.380Z,101830.22
2022-11-29T13:51:34.110Z,101830.44
2022-11-29T13:54:26.808Z,101835.53
2022-11-29T13:57:09.156Z,101827.66
2022-11-29T13:59:50.890Z,101833.16
2022-11-29T14:02:31.419Z,101828.88
2022-11-29T14:05:07.397Z,101829.06
2022-11-29T14:08:23.664Z,101828.56
2022-11-29T14:11:15.251Z,101828.56
2022-11-29T14:14:07.930Z,101824.69
2022-11-29T14:16:53.423Z,101803.94
2022-11-29T14:19:36.895Z,101824.97
2022-11-29T14:22:21.620Z,101831.28
2022-11-29T14:25:49.775Z,101826.09
2022-11-29T14:28:14.582Z,101834.31
2022-11-29T14:30:52.249Z,101844.06
2022-11-29T14:33:58.390Z,101846.28
2022-11-29T14:36:40.132Z,101842.75
2022-11-29T14:39:46.891Z,101828.56
2022-11-29T14:42:22.140Z,101845.47
2022-11-29T14:44:59.935Z,101850.13
2022-11-29T14:47:37.196Z,101848.75
2022-11-29T14:50:39.431Z,101836.34
2022-11-29T14:53:38.773Z,101854.16
2022-11-29T14:56:29.458Z,101854.16
2022-11-29T14:59:47.090Z,101852.19
2022-11-29T15:02:33.489Z,101850.69
2022-11-29T15:05:20.933Z,101857.59
2022-11-29T15:08:34.954Z,101860.06
2022-11-29T15:11:37.287Z,101860.22
2022-11-29T15:14:34.184Z,101854.97
2022-11-29T15:17:51.889Z,101858.50
2022-11-29T15:21:07.542Z,101863.91
2022-11-29T15:23:42.698Z,101857.28
2022-11-29T15:26:21.776Z,101861.88
2022-11-29T15:28:53.689Z,101859.31
2022-11-29T15:31:25.775Z,101862.03
2022-11-29T15:33:57.700Z,101862.69
2022-11-29T15:36:30.556Z,101869.81
2022-11-29T15:39:02.592Z,101867.94
2022-11-29T15:41:35.726Z,101869.81
2022-11-29T15:44:22.149Z,101836.28
2022-11-29T15:46:54.135Z,101870.72
2022-11-29T15:49:28.867Z,101857.22
2022-11-29T15:52:10.828Z,101872.53
2022-11-29T15:54:56.563Z,101869.25
2022-11-29T15:57:48.795Z,101864.97
2022-11-29T16:00:24.302Z,101874.19
2022-11-29T16:03:05.163Z,101879.44
2022-11-29T16:05:39.099Z,101870.56
2022-11-29T16:08:20.199Z,101879.88
2022-11-29T16:10:53.395Z,101879.00
2022-11-29T16:13:39.158Z,101875.97
2022-11-29T16:16:22.047Z,101880.72
2022-11-29T16:18:54.367Z,101868.25
2022-11-29T16:21:31.222Z,101879.09
2022-11-29T16:24:20.750Z,101865.72
2022-11-29T16:26:54.223Z,101876.81
2022-11-29T16:29:33.931Z,101881.31
2022-11-29T16:32:42.476Z,101874.00
2022-11-29T16:35:23.047Z,101882.56
2022-11-29T16:37:56.013Z,101877.28
2022-11-29T16:40:34.692Z,101885.72
2022-11-29T16:43:23.652Z,101887.44
2022-11-29T16:46:21.253Z,101898.41
2022-11-29T16:48:58.350Z,101894.34
2022-11-29T16:51:47.808Z,101873.56
2022-11-29T16:54:33.202Z,101902.97
2022-11-29T16:57:09.128Z,101899.75
2022-11-29T16:59:41.091Z,101902.84
2022-11-29T17:02:15.045Z,101910.09
2022-11-29T17:04:47.242Z,101898.50
2022-11-29T17:07:35.315Z,101904.66
2022-11-29T17:10:13.413Z,101907.13
2022-11-29T17:12:48.259Z,101903.66
2022-11-29T17:15:20.565Z,101907.28
2022-11-29T17:17:52.596Z,101900.16
2022-11-29T17:20:24.577Z,101910.09
2022-11-29T17:22:57.330Z,101910.91
2022-11-29T17:25:29.337Z,101906.66
2022-11-29T17:28:01.429Z,101906.66
2022-11-29T17:30:33.347Z,101914.38
2022-11-29T17:33:05.234Z,101911.53
2022-11-29T17:35:37.153Z,101918.53
2022-11-29T17:38:09.036Z,101912.91
2022-11-29T17:40:40.945Z,101919.72
2022-11-29T17:43:12.838Z,101922.91
2022-11-29T17:45:44.902Z,101920.84
2022-11-29T17:48:16.827Z,101925.38
2022-11-29T17:50:48.754Z,101925.63
2022-11-29T17:53:20.655Z,101924.78
2022-11-29T17:55:52.572Z,101930.31
2022-11-29T17:58:24.539Z,101904.38
2022-11-29T18:01:06.425Z,101930.13
2022-11-29T18:03:42.407Z,101933.59
2022-11-29T18:06:18.180Z,101934.53
2022-11-29T18:08:54.534Z,101937.41
2022-11-29T18:11:47.112Z,101925.66
2022-11-29T18:14:23.972Z,101934.88
2022-11-29T18:16:56.448Z,101935.97
2022-11-29T18:19:29.889Z,101942.75
2022-11-29T18:22:02.903Z,101941.75
2022-11-29T18:24:34.889Z,101937.97
2022-11-29T18:27:06.814Z,101945.84
2022-11-29T18:29:39.457Z,101942.22
2022-11-29T18:32:11.537Z,101927.84
2022-11-29T18:34:43.570Z,101942.38
2022-11-29T18:37:24.055Z,101938.69
2022-11-29T18:40:08.503Z,101942.31
2022-11-29T18:42:40.405Z,101944.22
2022-11-29T18:45:12.343Z,101943.41
2022-11-29T18:47:45.502Z,101939.75
2022-11-29T18:50:17.425Z,101949.56
2022-11-29T18:52:49.447Z,101960.75
2022-11-29T18:55:21.493Z,101960.44
2022-11-29T18:57:53.986Z,101955.97
2022-11-29T19:00:25.973Z,101963.22
2022-11-29T19:02:57.975Z,101966.66
2022-11-29T19:05:29.937Z,101971.09
2022-11-29T19:08:01.917Z,101969.28
2022-11-29T19:10:33.852Z,101973.81
2022-11-29T19:13:05.779Z,101974.53
2022-11-29T19:15:37.753Z,101976.91
2022-11-29T19:18:09.671Z,101975.03
2022-11-29T19:20:41.585Z,101974.81
2022-11-29T19:23:14.534Z,101968.44
2022-11-29T19:25:47.397Z,101976.66
2022-11-29T19:28:19.313Z,101976.75
2022-11-29T19:30:55.511Z,101983.09
2022-11-29T19:33:27.426Z,101980.75
2022-11-29T19:36:21.521Z,101981.28
2022-11-29T19:38:54.632Z,101976.94
2022-11-29T19:41:30.842Z,101985.88
2022-11-29T19:44:08.528Z,101990.31
2022-11-29T19:46:45.933Z,101991.31
2022-11-29T19:49:17.951Z,101986.97
2022-11-29T19:51:50.030Z,101985.97
2022-11-29T19:54:22.001Z,101966.09
2022-11-29T19:56:55.685Z,101977.84
2022-11-29T19:59:27.619Z,101987.78
2022-11-29T20:01:59.927Z,101987.44
2022-11-29T20:04:31.901Z,101984.00
2022-11-29T20:07:03.935Z,101985.78
2022-11-29T20:09:35.772Z,101986.50
2022-11-29T20:12:07.741Z,101994.31
2022-11-29T20:14:39.680Z,101993.13
2022-11-29T20:17:11.720Z,101988.34
2022-11-29T20:19:43.833Z,101988.91
2022-11-29T20:22:16.058Z,101991.59
2022-11-29T20:24:47.975Z,102002.66
2022-11-29T20:27:19.912Z,102006.25
2022-11-29T20:29:51.857Z,102001.19
2022-11-29T20:32:23.988Z,101999.00
2022-11-29T20:34:56.271Z,102009.88
2022-11-29T20:37:39.068Z,101999.19
2022-11-29T20:40:32.278Z,102005.91
2022-11-29T20:43:29.277Z,102014.22
2022-11-29T20:46:01.557Z,102017.03
2022-11-29T20:48:33.802Z,102016.22
2022-11-29T20:51:06.245Z,102018.66
2022-11-29T20:53:46.187Z,102017.41
2022-11-29T20:56:18.186Z,102012.97
2022-11-29T20:58:50.179Z,102020.38
2022-11-29T21:01:22.146Z,102009.72
2022-11-29T21:03:54.207Z,102020.66
2022-11-29T21:06:26.250Z,102019.63
2022-11-29T21:08:58.138Z,102019.47
2022-11-29T21:11:30.418Z,102018.19
2022-11-29T21:14:04.498Z,102022.53
2022-11-29T21:16:36.721Z,102018.38
2022-11-29T21:19:20.058Z,102007.44
2022-11-29T21:22:10.245Z,102024.06
2022-11-29T21:24:56.990Z,102020.72
2022-11-29T21:27:34.816Z,102013.69
2022-11-29T21:30:14.780Z,102018.53
2022-11-29T21:32:47.972Z,102026.97
2022-11-29T21:35:20.024Z,102023.44
2022-11-29T21:37:56.307Z,102021.44
2022-11-29T21:40:28.605Z,102033.75
2022-11-29T21:43:00.539Z,102034.91
2022-11-29T21:45:32.478Z,102032.00
2022-11-29T21:48:24.692Z,102027.78
2022-11-29T21:50:56.774Z,102031.38
2022-11-29T21:53:29.096Z,102033.19
2022-11-29T21:56:05.703Z,102018.16
2022-11-29T21:58:39.635Z,102031.75
2022-11-29T22:01:19.504Z,102030.13
2022-11-29T22:03:53.922Z,102033.91
2022-11-29T22:06:27.769Z,102026.84
2022-11-29T22:09:00.206Z,102031.22
2022-11-29T22:11:34.085Z,102032.94
2022-11-29T22:14:19.120Z,102035.75
2022-11-29T22:17:00.759Z,102043.41
2022-11-29T22:19:36.402Z,102029.28
2022-11-29T22:22:10.903Z,102037.34
2022-11-29T22:24:42.787Z,102039.44
2022-11-29T22:27:14.898Z,102036.09
2022-11-29T22:29:47.034Z,102036.38
2022-11-29T22:32:19.036Z,102029.69
2022-11-29T22:34:51.011Z,102026.53
2022-11-29T22:37:23.149Z,102028.31
2022-11-29T22:39:55.061Z,102029.50
2022-11-29T22:42:26.940Z,102021.63
2022-11-29T22:44:58.840Z,102029.97
2022-11-29T22:47:30.936Z,102033.50
2022-11-29T22:50:02.979Z,102033.50
2022-11-29T22:52:35.011Z,102037.22
2022-11-29T22:55:07.374Z,102031.97
2022-11-29T22:57:39.296Z,102039.91
2022-11-29T23:00:13.672Z,102038.09
2022-11-29T23:02:45.564Z,102046.97
2022-11-29T23:05:17.547Z,102049.41
2022-11-29T23:07:54.245Z,102040.97
2022-11-29T23:10:26.235Z,102015.66
2022-11-29T23:12:58.197Z,102042.81
2022-11-29T23:15:30.146Z,102016.50
2022-11-29T23:18:02.392Z,102041.72
2022-11-29T23:20:34.365Z,102048.59
2022-11-29T23:23:06.480Z,102049.31
2022-11-29T23:25:46.612Z,102055.28
2022-11-29T23:28:18.514Z,102053.56
2022-11-29T23:30:51.640Z,102056.00
2022-11-29T23:33:24.262Z,102050.94
2022-11-29T23:36:06.210Z,102018.53
2022-11-29T23:38:38.796Z,102053.66
2022-11-29T23:41:11.754Z,102056.00
2022-11-29T23:43:44.079Z,102050.03
2022-11-29T23:46:19.130Z,102050.13
2022-11-29T23:48:51.853Z,102041.53
2022-11-29T23:51:23.830Z,102041.72
2022-11-29T23:53:55.828Z,102047.88
2022-11-29T23:56:27.796Z,102046.88
2022-11-29T23:58:59.662Z,102032.47
